Main page
METAR-TAF:

METAR-TAF

Airports :

Garoua International Airport

Garoua, Cameroon

latitude: 09-20N, longitude: 013-23E, elevation: 242 m

Current weather observation

The report was made 7 hours and 32 minutes ago, at 07:00 UTC
Calm wind
Temperature 25°C
Humidity 36%
Pressure 1012 hPa
Visibility 10 km or more
no clouds below 1500 m and no cumulonimbus

METAR: FKKR 280700Z 00000KT CAVOK 25/09 Q1012 NOSIG

Time: 15:32 (14:32 UTC)

Forecast

The report was made 9 hours and 32 minutes ago, at 05:00 UTC
Forecast valid from 28 at 06 UTC to 28 at 18 UTC
Wind 6 kt from variable directions
Visibility 10 km or more
no clouds below 1500 m and no cumulonimbus

TAF: FKKR 280500Z 2806/2818 VRB06KT CAVOK

Weather observations and forecasts of more than 4000 airports (METAR and TAF reports).

The available stations are represented by yellow and red dots on the map.

Hover mouse over dot to see the name of the station.

Then click to see weather observations and forecasts.

To change the map : click on the green buttons with a black cross to zoom in, on the green button with a dash to zoom out, or on the green arrows for adjacent maps.


METAR-TAF: